Thunder radar more information blitzortung!


Radar de pluja more information rain snow radar


Visita la nostra xarxa de llocs de meteo:

Template documentation
and downloads

And another site



No particular awareness of the weather is required.    There are no Weather-warnings

Pagina Historial Weather Underground text

Diari Resum Juliol 24, 2017 Unitats:  Tant    Imperial   Mètric
« Previous Dia
SegĂźent Dia »
Diari Setmana Mensual Anual Personalitzada
  Maxima: Minima: Media:
Temperatura: 93.2 °F /  34.0 °C 62.2 °F /  16.8 °C 78.3 °F /  25.7 °C
Punt de rosada: 64.4 °F /  18.0 °C 53.4 °F /  11.9 °C 61 °F /  16.1 °C
Humitat: 95 % 31 % 58 %
Wind Speed: 15 mph /  24.1 km/h - 5.5 mph /  8.9 km/h
RĂ fegues de vent: 15 mph /  24.1 km/h - -
Vent:- - SSE
Pression baro: 30 in /  1015.8 hPa 29.8 in /  1010.7 hPa -
Precipitacions: 0 in /  0.0 mm    
Historical Graphs
 
 
Dades de taula per Juliol 24, 2017
Temps Temperatura Punt de rosada Pression baro Vent Wind Speed RĂ fegues de vent Humitat Rainfall Rate (Hourly)
00:03 66.2 °F /  19.0 °C 63.1 °F /  17.3 °C 30 in /  1015.8 hPa Calm     90 % 0 in /  0.0 mm
00:05 63.1 °F /  17.3 °C 61.3 °F /  16.3 °C 29.9 in /  1013.8 hPa WSW 1 mph /  1.6 km/h 2 mph /  3.2 km/h 94 % 0 in /  0.0 mm
00:15 63 °F /  17.2 °C 61 °F /  16.1 °C 29.9 in /  1013.8 hPa SW 2 mph /  3.2 km/h 3 mph /  4.8 km/h 93 % 0 in /  0.0 mm
00:25 62.8 °F /  17.1 °C 60.6 °F /  15.9 °C 29.9 in /  1013.8 hPa SW 2 mph /  3.2 km/h 3 mph /  4.8 km/h 93 % 0 in /  0.0 mm
00:35 62.8 °F /  17.1 °C 60.6 °F /  15.9 °C 29.9 in /  1013.8 hPa SW 2 mph /  3.2 km/h 3 mph /  4.8 km/h 93 % 0 in /  0.0 mm
00:45 62.8 °F /  17.1 °C 60.6 °F /  15.9 °C 29.9 in /  1013.8 hPa WSW 2 mph /  3.2 km/h 3 mph /  4.8 km/h 93 % 0 in /  0.0 mm
00:55 62.8 °F /  17.1 °C 60.6 °F /  15.9 °C 29.9 in /  1013.8 hPa WSW 1 mph /  1.6 km/h 2 mph /  3.2 km/h 93 % 0 in /  0.0 mm
01:05 62.6 °F /  17.0 °C 60.8 °F /  16.0 °C 29.9 in /  1013.8 hPa SW 1 mph /  1.6 km/h 3 mph /  4.8 km/h 94 % 0 in /  0.0 mm
01:15 62.6 °F /  17.0 °C 60.8 °F /  16.0 °C 29.9 in /  1013.8 hPa Calm   2 mph /  3.2 km/h 94 % 0 in /  0.0 mm
01:25 62.6 °F /  17.0 °C 60.8 °F /  16.0 °C 29.9 in /  1013.8 hPa Calm     94 % 0 in /  0.0 mm
01:35 62.4 °F /  16.9 °C 61 °F /  16.1 °C 29.9 in /  1013.8 hPa SW 2 mph /  3.2 km/h 3 mph /  4.8 km/h 95 % 0 in /  0.0 mm
01:45 62.2 °F /  16.8 °C 60.8 °F /  16.0 °C 29.9 in /  1013.8 hPa Calm   3 mph /  4.8 km/h 95 % 0 in /  0.0 mm
01:55 62.2 °F /  16.8 °C 60.8 °F /  16.0 °C 29.9 in /  1013.8 hPa Calm     95 % 0 in /  0.0 mm
02:05 62.4 °F /  16.9 °C 61 °F /  16.1 °C 29.9 in /  1012.8 hPa Calm     95 % 0 in /  0.0 mm
02:15 63 °F /  17.2 °C 61.5 °F /  16.4 °C 29.9 in /  1012.8 hPa Calm   1 mph /  1.6 km/h 95 % 0 in /  0.0 mm
02:25 63.1 °F /  17.3 °C 61.7 °F /  16.5 °C 29.9 in /  1013.8 hPa Calm   1 mph /  1.6 km/h 95 % 0 in /  0.0 mm
02:35 63.3 °F /  17.4 °C 61.9 °F /  16.6 °C 29.9 in /  1013.8 hPa ENE 1 mph /  1.6 km/h 1 mph /  1.6 km/h 95 % 0 in /  0.0 mm
02:45 63.7 °F /  17.6 °C 62.2 °F /  16.8 °C 29.9 in /  1013.8 hPa Calm     95 % 0 in /  0.0 mm
02:55 64.4 °F /  18.0 °C 62.2 °F /  16.8 °C 29.9 in /  1013.8 hPa Calm   2 mph /  3.2 km/h 93 % 0 in /  0.0 mm
03:05 65.3 °F /  18.5 °C 63 °F /  17.2 °C 29.9 in /  1013.8 hPa Calm   1 mph /  1.6 km/h 92 % 0 in /  0.0 mm
03:15 66.4 °F /  19.1 °C 63.3 °F /  17.4 °C 29.9 in /  1013.8 hPa NE 1 mph /  1.6 km/h 1 mph /  1.6 km/h 90 % 0 in /  0.0 mm
03:25 68.4 °F /  20.2 °C 64.2 °F /  17.9 °C 29.9 in /  1013.8 hPa ENE 2 mph /  3.2 km/h 2 mph /  3.2 km/h 87 % 0 in /  0.0 mm
03:35 69.4 °F /  20.8 °C 63.7 °F /  17.6 °C 29.9 in /  1013.8 hPa ENE 2 mph /  3.2 km/h 3 mph /  4.8 km/h 82 % 0 in /  0.0 mm
03:45 70 °F /  21.1 °C 63.9 °F /  17.7 °C 29.9 in /  1013.8 hPa NE 1 mph /  1.6 km/h 2 mph /  3.2 km/h 81 % 0 in /  0.0 mm
03:55 70 °F /  21.1 °C 62.8 °F /  17.1 °C 29.9 in /  1013.8 hPa WSW 2 mph /  3.2 km/h 4 mph /  6.4 km/h 78 % 0 in /  0.0 mm
04:05 70.2 °F /  21.2 °C 62.2 °F /  16.8 °C 29.9 in /  1012.8 hPa WSW 2 mph /  3.2 km/h 3 mph /  4.8 km/h 76 % 0 in /  0.0 mm
04:15 71.1 °F /  21.7 °C 62.4 °F /  16.9 °C 29.9 in /  1012.8 hPa WSW 1 mph /  1.6 km/h 2 mph /  3.2 km/h 74 % 0 in /  0.0 mm
04:25 73 °F /  22.8 °C 63.9 °F /  17.7 °C 29.9 in /  1012.8 hPa West 1 mph /  1.6 km/h 3 mph /  4.8 km/h 73 % 0 in /  0.0 mm
04:35 73 °F /  22.8 °C 63.5 °F /  17.5 °C 29.9 in /  1013.8 hPa WNW 3 mph /  4.8 km/h 5 mph /  8.0 km/h 72 % 0 in /  0.0 mm
04:45 73.6 °F /  23.1 °C 62.8 °F /  17.1 °C 29.9 in /  1013.8 hPa WNW 2 mph /  3.2 km/h 5 mph /  8.0 km/h 69 % 0 in /  0.0 mm
04:55 74.7 °F /  23.7 °C 62.4 °F /  16.9 °C 29.9 in /  1013.8 hPa NNW 3 mph /  4.8 km/h 4 mph /  6.4 km/h 66 % 0 in /  0.0 mm
05:00 74.8 °F /  23.8 °C 63.7 °F /  17.6 °C 29.9 in /  1013.8 hPa North 2 mph /  3.2 km/h 3 mph /  4.8 km/h 68 % 0 in /  0.0 mm
10:04 75.2 °F /  24.0 °C 63.1 °F /  17.3 °C 29.9 in /  1013.8 hPa SSW 2.3 mph /  3.7 km/h 2.3 mph /  3.7 km/h 66 % 0 in /  0.0 mm
10:09 75.7 °F /  24.3 °C 63.1 °F /  17.3 °C 29.9 in /  1013.8 hPa NW 3.5 mph /  5.6 km/h 3.5 mph /  5.6 km/h 65 % 0 in /  0.0 mm
10:14 75.9 °F /  24.4 °C 63.3 °F /  17.4 °C 29.9 in /  1013.8 hPa WNW 2.4 mph /  3.9 km/h 2.4 mph /  3.9 km/h 65 % 0 in /  0.0 mm
10:19 76.8 °F /  24.9 °C 63.7 °F /  17.6 °C 29.9 in /  1013.8 hPa West 2.9 mph /  4.7 km/h 2.9 mph /  4.7 km/h 64 % 0 in /  0.0 mm
10:24 76.3 °F /  24.6 °C 62.8 °F /  17.1 °C 29.9 in /  1013.8 hPa West 8.1 mph /  13.0 km/h 8.1 mph /  13.0 km/h 63 % 0 in /  0.0 mm
10:29 76.5 °F /  24.7 °C 63 °F /  17.2 °C 29.9 in /  1013.8 hPa West 4.6 mph /  7.4 km/h 4.6 mph /  7.4 km/h 63 % 0 in /  0.0 mm
10:34 76.8 °F /  24.9 °C 62.8 °F /  17.1 °C 29.9 in /  1013.8 hPa West 3.5 mph /  5.6 km/h 3.5 mph /  5.6 km/h 62 % 0 in /  0.0 mm
10:39 76.8 °F /  24.9 °C 62.8 °F /  17.1 °C 29.9 in /  1013.8 hPa WSW 4.6 mph /  7.4 km/h 4.6 mph /  7.4 km/h 62 % 0 in /  0.0 mm
10:44 76.5 °F /  24.7 °C 61.2 °F /  16.2 °C 29.9 in /  1013.8 hPa North 9.2 mph /  14.8 km/h 9.2 mph /  14.8 km/h 59 % 0 in /  0.0 mm
10:49 77.4 °F /  25.2 °C 61.3 °F /  16.3 °C 29.9 in /  1013.8 hPa WNW 6.9 mph /  11.1 km/h 6.9 mph /  11.1 km/h 58 % 0 in /  0.0 mm
10:54 77.5 °F /  25.3 °C 61.2 °F /  16.2 °C 29.9 in /  1013.8 hPa West 9.2 mph /  14.8 km/h 9.2 mph /  14.8 km/h 57 % 0 in /  0.0 mm
10:59 77.4 °F /  25.2 °C 59.9 °F /  15.5 °C 29.9 in /  1013.8 hPa West 8.1 mph /  13.0 km/h 8.1 mph /  13.0 km/h 55 % 0 in /  0.0 mm
11:04 78.1 °F /  25.6 °C 61.2 °F /  16.2 °C 29.9 in /  1013.8 hPa SSW 4.6 mph /  7.4 km/h 4.6 mph /  7.4 km/h 56 % 0 in /  0.0 mm
11:09 78.6 °F /  25.9 °C 61.5 °F /  16.4 °C 29.9 in /  1013.8 hPa West 4.6 mph /  7.4 km/h 4.6 mph /  7.4 km/h 56 % 0 in /  0.0 mm
11:14 79.2 °F /  26.2 °C 61.5 °F /  16.4 °C 29.9 in /  1013.8 hPa WNW 3.5 mph /  5.6 km/h 3.6 mph /  5.8 km/h 55 % 0 in /  0.0 mm
11:19 79.5 °F /  26.4 °C 61.3 °F /  16.3 °C 29.9 in /  1013.8 hPa WSW 4.6 mph /  7.4 km/h 4.6 mph /  7.4 km/h 54 % 0 in /  0.0 mm
11:24 79.9 °F /  26.6 °C 61.7 °F /  16.5 °C 29.9 in /  1013.8 hPa SW 3.6 mph /  5.8 km/h 3.6 mph /  5.8 km/h 54 % 0 in /  0.0 mm
11:29 80.4 °F /  26.9 °C 61.7 °F /  16.5 °C 29.9 in /  1013.8 hPa West 6.4 mph /  10.3 km/h 6.4 mph /  10.3 km/h 53 % 0 in /  0.0 mm
11:34 80.2 °F /  26.8 °C 61 °F /  16.1 °C 29.9 in /  1013.8 hPa SW 6.9 mph /  11.1 km/h 6.9 mph /  11.1 km/h 52 % 0 in /  0.0 mm
11:39 80.6 °F /  27.0 °C 60.8 °F /  16.0 °C 29.9 in /  1013.8 hPa WSW 5.8 mph /  9.3 km/h 5.8 mph /  9.3 km/h 51 % 0 in /  0.0 mm
11:44 81 °F /  27.2 °C 61.2 °F /  16.2 °C 29.9 in /  1013.8 hPa SW 4.7 mph /  7.6 km/h 4.7 mph /  7.6 km/h 51 % 0 in /  0.0 mm
11:49 80.8 °F /  27.1 °C 59.7 °F /  15.4 °C 29.9 in /  1013.8 hPa West 11.5 mph /  18.5 km/h 11.5 mph /  18.5 km/h 49 % 0 in /  0.0 mm
11:54 81.1 °F /  27.3 °C 60.3 °F /  15.7 °C 29.9 in /  1013.8 hPa NNW 15 mph /  24.1 km/h 15 mph /  24.1 km/h 49 % 0 in /  0.0 mm
11:59 81.3 °F /  27.4 °C 60.3 °F /  15.7 °C 29.9 in /  1013.8 hPa SW 5.8 mph /  9.3 km/h 5.8 mph /  9.3 km/h 49 % 0 in /  0.0 mm
12:04 81.7 °F /  27.6 °C 60.6 °F /  15.9 °C 29.9 in /  1013.8 hPa WSW 15 mph /  24.1 km/h 15 mph /  24.1 km/h 49 % 0 in /  0.0 mm
12:09 82 °F /  27.8 °C 61 °F /  16.1 °C 29.9 in /  1013.8 hPa WNW 9.2 mph /  14.8 km/h 9.2 mph /  14.8 km/h 49 % 0 in /  0.0 mm
12:14 82.4 °F /  28.0 °C 60.6 °F /  15.9 °C 29.9 in /  1013.8 hPa SSW 5.8 mph /  9.3 km/h 5.8 mph /  9.3 km/h 48 % 0 in /  0.0 mm
12:19 82.8 °F /  28.2 °C 61.2 °F /  16.2 °C 29.9 in /  1013.8 hPa SW 9.2 mph /  14.8 km/h 9.2 mph /  14.8 km/h 48 % 0 in /  0.0 mm
12:24 83.8 °F /  28.8 °C 62.6 °F /  17.0 °C 29.9 in /  1013.8 hPa SW 3.5 mph /  5.6 km/h 3.5 mph /  5.6 km/h 49 % 0 in /  0.0 mm
12:29 84.4 °F /  29.1 °C 61.9 °F /  16.6 °C 29.9 in /  1013.8 hPa West 4.9 mph /  7.9 km/h 4.9 mph /  7.9 km/h 47 % 0 in /  0.0 mm
12:34 84.6 °F /  29.2 °C 62.1 °F /  16.7 °C 29.9 in /  1013.8 hPa West 3.5 mph /  5.6 km/h 3.5 mph /  5.6 km/h 47 % 0 in /  0.0 mm
12:39 85.1 °F /  29.5 °C 62.6 °F /  17.0 °C 29.9 in /  1013.8 hPa WNW 3.3 mph /  5.3 km/h 3.3 mph /  5.3 km/h 47 % 0 in /  0.0 mm
12:44 85.1 °F /  29.5 °C 62.1 °F /  16.7 °C 29.9 in /  1013.8 hPa SW 8.1 mph /  13.0 km/h 8.1 mph /  13.0 km/h 46 % 0 in /  0.0 mm
12:49 85.1 °F /  29.5 °C 62.1 °F /  16.7 °C 29.9 in /  1013.8 hPa SW 3.6 mph /  5.8 km/h 3.8 mph /  6.1 km/h 46 % 0 in /  0.0 mm
12:54 85.1 °F /  29.5 °C 61.3 °F /  16.3 °C 29.9 in /  1013.8 hPa SW 6.9 mph /  11.1 km/h 6.9 mph /  11.1 km/h 45 % 0 in /  0.0 mm
12:59 85.5 °F /  29.7 °C 61.2 °F /  16.2 °C 29.9 in /  1013.8 hPa WSW 8.1 mph /  13.0 km/h 8.1 mph /  13.0 km/h 44 % 0 in /  0.0 mm
13:04 85.5 °F /  29.7 °C 60.4 °F /  15.8 °C 29.9 in /  1012.8 hPa WSW 9.2 mph /  14.8 km/h 9.2 mph /  14.8 km/h 43 % 0 in /  0.0 mm
13:09 86.5 °F /  30.3 °C 61.3 °F /  16.3 °C 29.9 in /  1012.8 hPa West 5.8 mph /  9.3 km/h 5.8 mph /  9.3 km/h 43 % 0 in /  0.0 mm
13:14 86 °F /  30.0 °C 60.3 °F /  15.7 °C 29.9 in /  1012.8 hPa SW 10.4 mph /  16.7 km/h 10.4 mph /  16.7 km/h 42 % 0 in /  0.0 mm
13:19 86.5 °F /  30.3 °C 60.6 °F /  15.9 °C 29.9 in /  1012.8 hPa SW 6.9 mph /  11.1 km/h 6.9 mph /  11.1 km/h 42 % 0 in /  0.0 mm
13:24 87.3 °F /  30.7 °C 61.3 °F /  16.3 °C 29.9 in /  1012.8 hPa SW 3.8 mph /  6.1 km/h 3.8 mph /  6.1 km/h 42 % 0 in /  0.0 mm
13:29 87.1 °F /  30.6 °C 61.2 °F /  16.2 °C 29.9 in /  1012.8 hPa West 6 mph /  9.7 km/h 6 mph /  9.7 km/h 42 % 0 in /  0.0 mm
13:34 86.5 °F /  30.3 °C 60.1 °F /  15.6 °C 29.9 in /  1012.8 hPa West 4.6 mph /  7.4 km/h 4.6 mph /  7.4 km/h 41 % 0 in /  0.0 mm
13:39 86.7 °F /  30.4 °C 59.5 °F /  15.3 °C 29.9 in /  1012.8 hPa West 5.8 mph /  9.3 km/h 5.8 mph /  9.3 km/h 40 % 0 in /  0.0 mm
13:44 87.1 °F /  30.6 °C 59.7 °F /  15.4 °C 29.9 in /  1012.8 hPa West 5.8 mph /  9.3 km/h 5.8 mph /  9.3 km/h 40 % 0 in /  0.0 mm
13:49 88.2 °F /  31.2 °C 60.8 °F /  16.0 °C 29.9 in /  1011.7 hPa West 6.9 mph /  11.1 km/h 6.9 mph /  11.1 km/h 40 % 0 in /  0.0 mm
13:54 87.8 °F /  31.0 °C 59.7 °F /  15.4 °C 29.9 in /  1011.7 hPa North 5.8 mph /  9.3 km/h 5.8 mph /  9.3 km/h 39 % 0 in /  0.0 mm
13:59 87.6 °F /  30.9 °C 59.5 °F /  15.3 °C 29.9 in /  1011.7 hPa WSW 8.1 mph /  13.0 km/h 8.1 mph /  13.0 km/h 39 % 0 in /  0.0 mm
14:04 88 °F /  31.1 °C 59.9 °F /  15.5 °C 29.9 in /  1012.8 hPa SW 6.9 mph /  11.1 km/h 6.9 mph /  11.1 km/h 39 % 0 in /  0.0 mm
14:09 88.5 °F /  31.4 °C 59.7 °F /  15.4 °C 29.9 in /  1012.8 hPa WSW 3.5 mph /  5.6 km/h 3.5 mph /  5.6 km/h 38 % 0 in /  0.0 mm
14:14 88 °F /  31.1 °C 58.5 °F /  14.7 °C 29.9 in /  1012.8 hPa WSW 6.9 mph /  11.1 km/h 6.9 mph /  11.1 km/h 37 % 0 in /  0.0 mm
14:19 89.2 °F /  31.8 °C 60.3 °F /  15.7 °C 29.9 in /  1011.7 hPa WNW 3.6 mph /  5.8 km/h 3.6 mph /  5.8 km/h 38 % 0 in /  0.0 mm
14:24 90 °F /  32.2 °C 61.7 °F /  16.5 °C 29.9 in /  1011.7 hPa SW 3.8 mph /  6.1 km/h 3.8 mph /  6.1 km/h 39 % 0 in /  0.0 mm
14:29 89.6 °F /  32.0 °C 60.6 °F /  15.9 °C 29.9 in /  1011.7 hPa West 5.8 mph /  9.3 km/h 5.8 mph /  9.3 km/h 38 % 0 in /  0.0 mm
14:34 89.4 °F /  31.9 °C 60.4 °F /  15.8 °C 29.9 in /  1011.7 hPa WSW 5.8 mph /  9.3 km/h 5.8 mph /  9.3 km/h 38 % 0 in /  0.0 mm
14:39 88.7 °F /  31.5 °C 59.2 °F /  15.1 °C 29.9 in /  1011.7 hPa SW 4.6 mph /  7.4 km/h 4.6 mph /  7.4 km/h 37 % 0 in /  0.0 mm
14:44 89.2 °F /  31.8 °C 58.8 °F /  14.9 °C 29.9 in /  1011.7 hPa WNW 3.5 mph /  5.6 km/h 3.5 mph /  5.6 km/h 36 % 0 in /  0.0 mm
14:49 90.5 °F /  32.5 °C 59.9 °F /  15.5 °C 29.9 in /  1011.7 hPa WSW 6 mph /  9.7 km/h 6 mph /  9.7 km/h 36 % 0 in /  0.0 mm
14:54 91 °F /  32.8 °C 59.5 °F /  15.3 °C 29.9 in /  1011.7 hPa South 5.8 mph /  9.3 km/h 5.8 mph /  9.3 km/h 35 % 0 in /  0.0 mm
14:59 91.8 °F /  33.2 °C 60.3 °F /  15.7 °C 29.9 in /  1011.7 hPa WSW 5.8 mph /  9.3 km/h 5.8 mph /  9.3 km/h 35 % 0 in /  0.0 mm
15:04 91.2 °F /  32.9 °C 59.7 °F /  15.4 °C 29.8 in /  1010.7 hPa South 3.5 mph /  5.6 km/h 3.5 mph /  5.6 km/h 35 % 0 in /  0.0 mm
15:10 91.8 °F /  33.2 °C 58.6 °F /  14.8 °C 29.8 in /  1010.7 hPa West 5.8 mph /  9.3 km/h 5.8 mph /  9.3 km/h 33 % 0 in /  0.0 mm
15:15 93 °F /  33.9 °C 61.3 °F /  16.3 °C 29.8 in /  1010.7 hPa SSW 3.5 mph /  5.6 km/h 3.5 mph /  5.6 km/h 35 % 0 in /  0.0 mm
15:20 92.8 °F /  33.8 °C 60.3 °F /  15.7 °C 29.9 in /  1011.7 hPa West 4.6 mph /  7.4 km/h 4.6 mph /  7.4 km/h 34 % 0 in /  0.0 mm
15:25 92.3 °F /  33.5 °C 59 °F /  15.0 °C 29.9 in /  1011.7 hPa WSW 4.6 mph /  7.4 km/h 4.6 mph /  7.4 km/h 33 % 0 in /  0.0 mm
15:30 93 °F /  33.9 °C 59.7 °F /  15.4 °C 29.9 in /  1011.7 hPa SW 2.3 mph /  3.7 km/h 3.3 mph /  5.3 km/h 33 % 0 in /  0.0 mm
15:32 93.2 °F /  34.0 °C 59.7 °F /  15.4 °C 29.9 in /  1011.7 hPa WSW 5.8 mph /  9.3 km/h 5.8 mph /  9.3 km/h 33 % 0 in /  0.0 mm
15:37 90.9 °F /  32.7 °C 55.9 °F /  13.3 °C 29.9 in /  1011.7 hPa ESE 4.6 mph /  7.4 km/h 4.6 mph /  7.4 km/h 31 % 0 in /  0.0 mm
15:42 91 °F /  32.8 °C 57 °F /  13.9 °C 29.9 in /  1011.7 hPa West 5.8 mph /  9.3 km/h 5.8 mph /  9.3 km/h 32 % 0 in /  0.0 mm
15:47 91.6 °F /  33.1 °C 57.6 °F /  14.2 °C 29.9 in /  1011.7 hPa SSE 8.1 mph /  13.0 km/h 8.1 mph /  13.0 km/h 32 % 0 in /  0.0 mm
15:52 87.8 °F /  31.0 °C 56.7 °F /  13.7 °C 29.9 in /  1011.7 hPa ESE 8.1 mph /  13.0 km/h 8.1 mph /  13.0 km/h 35 % 0 in /  0.0 mm
15:57 86.5 °F /  30.3 °C 57.2 °F /  14.0 °C 29.9 in /  1011.7 hPa ENE 8.1 mph /  13.0 km/h 8.1 mph /  13.0 km/h 37 % 0 in /  0.0 mm
16:02 86 °F /  30.0 °C 58.3 °F /  14.6 °C 29.9 in /  1011.7 hPa NE 9.2 mph /  14.8 km/h 9.2 mph /  14.8 km/h 39 % 0 in /  0.0 mm
16:07 86.4 °F /  30.2 °C 58.5 °F /  14.7 °C 29.9 in /  1011.7 hPa East 9.2 mph /  14.8 km/h 9.2 mph /  14.8 km/h 39 % 0 in /  0.0 mm
16:12 85.8 °F /  29.9 °C 58.6 °F /  14.8 °C 29.9 in /  1011.7 hPa East 12.3 mph /  19.8 km/h 12.3 mph /  19.8 km/h 40 % 0 in /  0.0 mm
16:17 84.9 °F /  29.4 °C 57.9 °F /  14.4 °C 29.9 in /  1011.7 hPa ESE 13.8 mph /  22.2 km/h 13.8 mph /  22.2 km/h 40 % 0 in /  0.0 mm
16:22 84.7 °F /  29.3 °C 58.5 °F /  14.7 °C 29.9 in /  1011.7 hPa ENE 10.4 mph /  16.7 km/h 10.4 mph /  16.7 km/h 41 % 0 in /  0.0 mm
16:27 85.1 °F /  29.5 °C 59.4 °F /  15.2 °C 29.9 in /  1011.7 hPa ENE 10.4 mph /  16.7 km/h 10.4 mph /  16.7 km/h 42 % 0 in /  0.0 mm
16:32 85.6 °F /  29.8 °C 59.9 °F /  15.5 °C 29.9 in /  1011.7 hPa NNE 6.9 mph /  11.1 km/h 6.9 mph /  11.1 km/h 42 % 0 in /  0.0 mm
16:37 85.8 °F /  29.9 °C 60.1 °F /  15.6 °C 29.9 in /  1011.7 hPa East 8.1 mph /  13.0 km/h 8.1 mph /  13.0 km/h 42 % 0 in /  0.0 mm
16:42 85.8 °F /  29.9 °C 60.1 °F /  15.6 °C 29.9 in /  1011.7 hPa ESE 12.7 mph /  20.4 km/h 12.7 mph /  20.4 km/h 42 % 0 in /  0.0 mm
16:43 85.6 °F /  29.8 °C 59.9 °F /  15.5 °C 29.9 in /  1011.7 hPa ESE 6.9 mph /  11.1 km/h 6.9 mph /  11.1 km/h 42 % 0 in /  0.0 mm
16:48 85.5 °F /  29.7 °C 60.4 °F /  15.8 °C 29.9 in /  1011.7 hPa ESE 6.9 mph /  11.1 km/h 6.9 mph /  11.1 km/h 43 % 0 in /  0.0 mm
16:53 85.5 °F /  29.7 °C 60.4 °F /  15.8 °C 29.8 in /  1010.7 hPa ESE 8.1 mph /  13.0 km/h 8.1 mph /  13.0 km/h 43 % 0 in /  0.0 mm
16:58 84.9 °F /  29.4 °C 59.9 °F /  15.5 °C 29.8 in /  1010.7 hPa ESE 11.5 mph /  18.5 km/h 11.5 mph /  18.5 km/h 43 % 0 in /  0.0 mm
17:03 84.9 °F /  29.4 °C 59.9 °F /  15.5 °C 29.8 in /  1010.7 hPa ESE 10.4 mph /  16.7 km/h 10.4 mph /  16.7 km/h 43 % 0 in /  0.0 mm
17:08 84.9 °F /  29.4 °C 59.9 °F /  15.5 °C 29.8 in /  1010.7 hPa ESE 9.2 mph /  14.8 km/h 9.2 mph /  14.8 km/h 43 % 0 in /  0.0 mm
17:13 84.9 °F /  29.4 °C 60.6 °F /  15.9 °C 29.8 in /  1010.7 hPa ESE 11.5 mph /  18.5 km/h 11.5 mph /  18.5 km/h 44 % 0 in /  0.0 mm
17:18 84.7 °F /  29.3 °C 60.4 °F /  15.8 °C 29.8 in /  1010.7 hPa ESE 10.4 mph /  16.7 km/h 10.4 mph /  16.7 km/h 44 % 0 in /  0.0 mm
17:23 84.7 °F /  29.3 °C 60.4 °F /  15.8 °C 29.8 in /  1010.7 hPa ENE 11.5 mph /  18.5 km/h 11.5 mph /  18.5 km/h 44 % 0 in /  0.0 mm
17:28 84.4 °F /  29.1 °C 60.1 °F /  15.6 °C 29.8 in /  1010.7 hPa East 10.4 mph /  16.7 km/h 10.4 mph /  16.7 km/h 44 % 0 in /  0.0 mm
17:33 84.2 °F /  29.0 °C 59.9 °F /  15.5 °C 29.8 in /  1010.7 hPa ESE 13.8 mph /  22.2 km/h 13.8 mph /  22.2 km/h 44 % 0 in /  0.0 mm
17:38 84 °F /  28.9 °C 60.4 °F /  15.8 °C 29.8 in /  1010.7 hPa East 11.8 mph /  19.0 km/h 11.8 mph /  19.0 km/h 45 % 0 in /  0.0 mm
17:43 83.3 °F /  28.5 °C 60.4 °F /  15.8 °C 29.8 in /  1010.7 hPa SE 10.4 mph /  16.7 km/h 10.4 mph /  16.7 km/h 46 % 0 in /  0.0 mm
17:48 83.5 °F /  28.6 °C 60.4 °F /  15.8 °C 29.8 in /  1010.7 hPa NE 6.9 mph /  11.1 km/h 6.9 mph /  11.1 km/h 46 % 0 in /  0.0 mm
17:53 83.5 °F /  28.6 °C 60.4 °F /  15.8 °C 29.8 in /  1010.7 hPa SE 8.5 mph /  13.7 km/h 8.5 mph /  13.7 km/h 46 % 0 in /  0.0 mm
17:58 82.9 °F /  28.3 °C 60.1 °F /  15.6 °C 29.8 in /  1010.7 hPa NE 14.3 mph /  23.0 km/h 14.3 mph /  23.0 km/h 46 % 0 in /  0.0 mm
18:03 82.8 °F /  28.2 °C 60.4 °F /  15.8 °C 29.8 in /  1010.7 hPa NE 11.5 mph /  18.5 km/h 11.5 mph /  18.5 km/h 47 % 0 in /  0.0 mm
18:08 82.6 °F /  28.1 °C 60.3 °F /  15.7 °C 29.8 in /  1010.7 hPa ESE 8.1 mph /  13.0 km/h 8.1 mph /  13.0 km/h 47 % 0 in /  0.0 mm
18:13 82.4 °F /  28.0 °C 60.1 °F /  15.6 °C 29.8 in /  1010.7 hPa East 6.9 mph /  11.1 km/h 6.9 mph /  11.1 km/h 47 % 0 in /  0.0 mm
18:18 82.2 °F /  27.9 °C 60.1 °F /  15.6 °C 29.8 in /  1010.7 hPa ESE 12.7 mph /  20.4 km/h 12.7 mph /  20.4 km/h 47 % 0 in /  0.0 mm
18:23 82.2 °F /  27.9 °C 60.1 °F /  15.6 °C 29.8 in /  1010.7 hPa SSE 13.8 mph /  22.2 km/h 13.8 mph /  22.2 km/h 47 % 0 in /  0.0 mm
18:28 82.2 °F /  27.9 °C 60.1 °F /  15.6 °C 29.8 in /  1010.7 hPa ESE 6.9 mph /  11.1 km/h 6.9 mph /  11.1 km/h 47 % 0 in /  0.0 mm
18:33 82 °F /  27.8 °C 59.7 °F /  15.4 °C 29.8 in /  1010.7 hPa East 8.1 mph /  13.0 km/h 8.1 mph /  13.0 km/h 47 % 0 in /  0.0 mm
18:38 81.5 °F /  27.5 °C 59.9 °F /  15.5 °C 29.9 in /  1011.7 hPa ENE 8.1 mph /  13.0 km/h 8.1 mph /  13.0 km/h 48 % 0 in /  0.0 mm
18:43 81.3 °F /  27.4 °C 60.3 °F /  15.7 °C 29.9 in /  1011.7 hPa East 8.5 mph /  13.7 km/h 8.5 mph /  13.7 km/h 49 % 0 in /  0.0 mm
18:48 81 °F /  27.2 °C 60.1 °F /  15.6 °C 29.9 in /  1011.7 hPa ENE 6.9 mph /  11.1 km/h 6.9 mph /  11.1 km/h 49 % 0 in /  0.0 mm
18:53 80.8 °F /  27.1 °C 59.7 °F /  15.4 °C 29.8 in /  1010.7 hPa NNE 6 mph /  9.7 km/h 6 mph /  9.7 km/h 49 % 0 in /  0.0 mm
18:58 80.8 °F /  27.1 °C 60.4 °F /  15.8 °C 29.8 in /  1010.7 hPa ENE 8.1 mph /  13.0 km/h 8.1 mph /  13.0 km/h 50 % 0 in /  0.0 mm
19:03 80.6 °F /  27.0 °C 59.7 °F /  15.4 °C 29.8 in /  1010.7 hPa ESE 10.4 mph /  16.7 km/h 10.4 mph /  16.7 km/h 49 % 0 in /  0.0 mm
19:08 80.2 °F /  26.8 °C 60.4 °F /  15.8 °C 29.8 in /  1010.7 hPa NNE 9.2 mph /  14.8 km/h 9.2 mph /  14.8 km/h 51 % 0 in /  0.0 mm
19:13 80.2 °F /  26.8 °C 59.9 °F /  15.5 °C 29.8 in /  1010.7 hPa NNE 6.9 mph /  11.1 km/h 6.9 mph /  11.1 km/h 50 % 0 in /  0.0 mm
19:18 80.2 °F /  26.8 °C 60.4 °F /  15.8 °C 29.8 in /  1010.7 hPa ENE 6.9 mph /  11.1 km/h 6.9 mph /  11.1 km/h 51 % 0 in /  0.0 mm
19:23 80.2 °F /  26.8 °C 60.4 °F /  15.8 °C 29.9 in /  1011.7 hPa ENE 3.6 mph /  5.8 km/h 3.6 mph /  5.8 km/h 51 % 0 in /  0.0 mm
19:28 80.1 °F /  26.7 °C 60.3 °F /  15.7 °C 29.9 in /  1011.7 hPa ESE 5.8 mph /  9.3 km/h 5.8 mph /  9.3 km/h 51 % 0 in /  0.0 mm
19:33 80.1 °F /  26.7 °C 60.3 °F /  15.7 °C 29.9 in /  1011.7 hPa ESE 9.4 mph /  15.1 km/h 9.4 mph /  15.1 km/h 51 % 0 in /  0.0 mm
19:38 79.5 °F /  26.4 °C 59.7 °F /  15.4 °C 29.9 in /  1011.7 hPa East 8.1 mph /  13.0 km/h 8.1 mph /  13.0 km/h 51 % 0 in /  0.0 mm
19:43 79.5 °F /  26.4 °C 59.7 °F /  15.4 °C 29.9 in /  1011.7 hPa NE 8.1 mph /  13.0 km/h 8.1 mph /  13.0 km/h 51 % 0 in /  0.0 mm
19:48 79.2 °F /  26.2 °C 59.5 °F /  15.3 °C 29.9 in /  1011.7 hPa East 7.6 mph /  12.2 km/h 7.6 mph /  12.2 km/h 51 % 0 in /  0.0 mm
19:53 78.8 °F /  26.0 °C 59.7 °F /  15.4 °C 29.9 in /  1011.7 hPa ENE 6 mph /  9.7 km/h 6 mph /  9.7 km/h 52 % 0 in /  0.0 mm
19:58 78.6 °F /  25.9 °C 59.5 °F /  15.3 °C 29.9 in /  1011.7 hPa East 5.8 mph /  9.3 km/h 5.8 mph /  9.3 km/h 52 % 0 in /  0.0 mm
20:03 78.3 °F /  25.7 °C 59.7 °F /  15.4 °C 29.9 in /  1011.7 hPa East 9.2 mph /  14.8 km/h 9.2 mph /  14.8 km/h 53 % 0 in /  0.0 mm
20:08 77.9 °F /  25.5 °C 59.4 °F /  15.2 °C 29.9 in /  1011.7 hPa ESE 5.8 mph /  9.3 km/h 5.8 mph /  9.3 km/h 53 % 0 in /  0.0 mm
20:13 77.7 °F /  25.4 °C 59.7 °F /  15.4 °C 29.9 in /  1011.7 hPa NE 8.1 mph /  13.0 km/h 8.1 mph /  13.0 km/h 54 % 0 in /  0.0 mm
20:18 77.5 °F /  25.3 °C 59.5 °F /  15.3 °C 29.9 in /  1011.7 hPa ENE 6.9 mph /  11.1 km/h 6.9 mph /  11.1 km/h 54 % 0 in /  0.0 mm
20:23 77.5 °F /  25.3 °C 59.5 °F /  15.3 °C 29.8 in /  1010.7 hPa ESE 5.8 mph /  9.3 km/h 5.8 mph /  9.3 km/h 54 % 0 in /  0.0 mm
20:28 77.4 °F /  25.2 °C 59.4 °F /  15.2 °C 29.8 in /  1010.7 hPa East 9.2 mph /  14.8 km/h 9.2 mph /  14.8 km/h 54 % 0 in /  0.0 mm
20:33 77.4 °F /  25.2 °C 59.9 °F /  15.5 °C 29.8 in /  1010.7 hPa ENE 3.5 mph /  5.6 km/h 3.5 mph /  5.6 km/h 55 % 0 in /  0.0 mm
20:38 77.2 °F /  25.1 °C 59.7 °F /  15.4 °C 29.9 in /  1011.7 hPa ESE 3.6 mph /  5.8 km/h 3.6 mph /  5.8 km/h 55 % 0 in /  0.0 mm
20:43 77.2 °F /  25.1 °C 59.7 °F /  15.4 °C 29.9 in /  1011.7 hPa ESE 6.4 mph /  10.3 km/h 6.4 mph /  10.3 km/h 55 % 0 in /  0.0 mm
20:48 77.2 °F /  25.1 °C 60.3 °F /  15.7 °C 29.9 in /  1011.7 hPa East 4.6 mph /  7.4 km/h 4.6 mph /  7.4 km/h 56 % 0 in /  0.0 mm
20:53 76.8 °F /  24.9 °C 60.4 °F /  15.8 °C 29.9 in /  1011.7 hPa East 8.1 mph /  13.0 km/h 8.1 mph /  13.0 km/h 57 % 0 in /  0.0 mm
20:58 76.6 °F /  24.8 °C 60.3 °F /  15.7 °C 29.9 in /  1011.7 hPa East 3.5 mph /  5.6 km/h 3.5 mph /  5.6 km/h 57 % 0 in /  0.0 mm
21:03 76.5 °F /  24.7 °C 60.1 °F /  15.6 °C 29.9 in /  1011.7 hPa ESE 3.5 mph /  5.6 km/h 3.5 mph /  5.6 km/h 57 % 0 in /  0.0 mm
21:08 76.3 °F /  24.6 °C 59.9 °F /  15.5 °C 29.9 in /  1012.8 hPa NE 5.8 mph /  9.3 km/h 5.8 mph /  9.3 km/h 57 % 0 in /  0.0 mm
21:13 76.1 °F /  24.5 °C 59.7 °F /  15.4 °C 29.9 in /  1012.8 hPa ENE 5.8 mph /  9.3 km/h 5.8 mph /  9.3 km/h 57 % 0 in /  0.0 mm
21:15 71.2 °F /  21.8 °C 63.3 °F /  17.4 °C 29.9 in /  1013.8 hPa NW 1 mph /  1.6 km/h 2 mph /  3.2 km/h 76 % 0 in /  0.0 mm
21:18 75.9 °F /  24.4 °C 59.5 °F /  15.3 °C 29.9 in /  1012.8 hPa ESE 4.6 mph /  7.4 km/h 4.6 mph /  7.4 km/h 57 % 0 in /  0.0 mm
21:23 75.7 °F /  24.3 °C 59.4 °F /  15.2 °C 29.9 in /  1012.8 hPa East 6.9 mph /  11.1 km/h 6.9 mph /  11.1 km/h 57 % 0 in /  0.0 mm
21:25 71.2 °F /  21.8 °C 63.7 °F /  17.6 °C 29.9 in /  1013.8 hPa Calm   2 mph /  3.2 km/h 77 % 0 in /  0.0 mm
21:28 75.6 °F /  24.2 °C 60.3 °F /  15.7 °C 29.9 in /  1012.8 hPa ESE 6.9 mph /  11.1 km/h 6.9 mph /  11.1 km/h 59 % 0 in /  0.0 mm
21:33 75.4 °F /  24.1 °C 60.1 °F /  15.6 °C 29.9 in /  1012.8 hPa NNE 3.5 mph /  5.6 km/h 3.6 mph /  5.8 km/h 59 % 0 in /  0.0 mm
21:35 71.2 °F /  21.8 °C 63.7 °F /  17.6 °C 29.9 in /  1013.8 hPa WSW 1 mph /  1.6 km/h 2 mph /  3.2 km/h 77 % 0 in /  0.0 mm
21:38 75.2 °F /  24.0 °C 60.4 °F /  15.8 °C 29.9 in /  1012.8 hPa East 5.8 mph /  9.3 km/h 5.8 mph /  9.3 km/h 60 % 0 in /  0.0 mm
21:43 75.2 °F /  24.0 °C 61.3 °F /  16.3 °C 29.9 in /  1012.8 hPa ESE 8.1 mph /  13.0 km/h 8.1 mph /  13.0 km/h 62 % 0 in /  0.0 mm
21:45 71.2 °F /  21.8 °C 63.7 °F /  17.6 °C 29.9 in /  1013.8 hPa WSW 1 mph /  1.6 km/h 2 mph /  3.2 km/h 77 % 0 in /  0.0 mm
21:48 75 °F /  23.9 °C 62.4 °F /  16.9 °C 29.9 in /  1012.8 hPa NE 12.1 mph /  19.5 km/h 12.1 mph /  19.5 km/h 65 % 0 in /  0.0 mm
21:53 74.7 °F /  23.7 °C 62.1 °F /  16.7 °C 29.9 in /  1013.8 hPa NNE 5.8 mph /  9.3 km/h 5.8 mph /  9.3 km/h 65 % 0 in /  0.0 mm
21:55 71.1 °F /  21.7 °C 63.9 °F /  17.7 °C 29.9 in /  1013.8 hPa WSW 1 mph /  1.6 km/h 2 mph /  3.2 km/h 78 % 0 in /  0.0 mm
21:58 74.7 °F /  23.7 °C 62.4 °F /  16.9 °C 29.9 in /  1013.8 hPa East 4.6 mph /  7.4 km/h 4.6 mph /  7.4 km/h 66 % 0 in /  0.0 mm
22:03 74.5 °F /  23.6 °C 63.1 °F /  17.3 °C 29.9 in /  1013.8 hPa ESE 8.1 mph /  13.0 km/h 8.1 mph /  13.0 km/h 68 % 0 in /  0.0 mm
22:05 71.1 °F /  21.7 °C 63.5 °F /  17.5 °C 29.9 in /  1013.8 hPa WSW 2 mph /  3.2 km/h 3 mph /  4.8 km/h 77 % 0 in /  0.0 mm
22:08 74.3 °F /  23.5 °C 63.5 °F /  17.5 °C 29.9 in /  1013.8 hPa ESE 8.1 mph /  13.0 km/h 8.1 mph /  13.0 km/h 69 % 0 in /  0.0 mm
22:13 74.1 °F /  23.4 °C 63.3 °F /  17.4 °C 29.9 in /  1013.8 hPa East 5.8 mph /  9.3 km/h 5.8 mph /  9.3 km/h 69 % 0 in /  0.0 mm
22:15 70.7 °F /  21.5 °C 62.8 °F /  17.1 °C 29.9 in /  1013.8 hPa West 2 mph /  3.2 km/h 4 mph /  6.4 km/h 76 % 0 in /  0.0 mm
22:18 73.9 °F /  23.3 °C 63.9 °F /  17.7 °C 29.9 in /  1013.8 hPa ESE 8.1 mph /  13.0 km/h 8.1 mph /  13.0 km/h 71 % 0 in /  0.0 mm
22:23 73.8 °F /  23.2 °C 63.9 °F /  17.7 °C 29.9 in /  1013.8 hPa NE 5.8 mph /  9.3 km/h 5.8 mph /  9.3 km/h 71 % 0 in /  0.0 mm
22:25 70.7 °F /  21.5 °C 60.8 °F /  16.0 °C 29.9 in /  1013.8 hPa West 3 mph /  4.8 km/h 3 mph /  4.8 km/h 71 % 0 in /  0.0 mm
22:28 73.8 °F /  23.2 °C 63.9 °F /  17.7 °C 29.9 in /  1013.8 hPa ESE 5.8 mph /  9.3 km/h 5.8 mph /  9.3 km/h 71 % 0 in /  0.0 mm
22:33 73.6 °F /  23.1 °C 63.7 °F /  17.6 °C 29.9 in /  1013.8 hPa ENE 4.6 mph /  7.4 km/h 4.6 mph /  7.4 km/h 71 % 0 in /  0.0 mm
22:35 70.9 °F /  21.6 °C 59 °F /  15.0 °C 30 in /  1014.8 hPa West 3 mph /  4.8 km/h 4 mph /  6.4 km/h 66 % 0 in /  0.0 mm
22:38 73.6 °F /  23.1 °C 63.7 °F /  17.6 °C 29.9 in /  1013.8 hPa SE 4.7 mph /  7.6 km/h 4.7 mph /  7.6 km/h 71 % 0 in /  0.0 mm
22:43 73.4 °F /  23.0 °C 63.9 °F /  17.7 °C 29.9 in /  1013.8 hPa East 2.9 mph /  4.7 km/h 2.9 mph /  4.7 km/h 72 % 0 in /  0.0 mm
22:45 70.7 °F /  21.5 °C 58.5 °F /  14.7 °C 30 in /  1014.8 hPa WSW 2 mph /  3.2 km/h 3 mph /  4.8 km/h 65 % 0 in /  0.0 mm
22:48 73.4 °F /  23.0 °C 64.2 °F /  17.9 °C 29.9 in /  1013.8 hPa ENE 6.2 mph /  10.0 km/h 6.2 mph /  10.0 km/h 73 % 0 in /  0.0 mm
22:53 73.4 °F /  23.0 °C 64.2 °F /  17.9 °C 29.9 in /  1013.8 hPa East 4.6 mph /  7.4 km/h 4.6 mph /  7.4 km/h 73 % 0 in /  0.0 mm
22:55 70.5 °F /  21.4 °C 57.4 °F /  14.1 °C 29.9 in /  1013.8 hPa West 2 mph /  3.2 km/h 4 mph /  6.4 km/h 63 % 0 in /  0.0 mm
22:58 73.4 °F /  23.0 °C 64.2 °F /  17.9 °C 29.9 in /  1013.8 hPa East 4.9 mph /  7.9 km/h 4.9 mph /  7.9 km/h 73 % 0 in /  0.0 mm
23:03 73.2 °F /  22.9 °C 64 °F /  17.8 °C 29.9 in /  1013.8 hPa ESE 5.8 mph /  9.3 km/h 5.8 mph /  9.3 km/h 73 % 0 in /  0.0 mm
23:05 70.2 °F /  21.2 °C 56.1 °F /  13.4 °C 29.9 in /  1013.8 hPa West 2 mph /  3.2 km/h 3 mph /  4.8 km/h 61 % 0 in /  0.0 mm
23:08 73.2 °F /  22.9 °C 64.4 °F /  18.0 °C 29.9 in /  1013.8 hPa East 4.9 mph /  7.9 km/h 4.9 mph /  7.9 km/h 74 % 0 in /  0.0 mm
23:13 73.2 °F /  22.9 °C 64.4 °F /  18.0 °C 29.9 in /  1013.8 hPa ESE 3.5 mph /  5.6 km/h 3.5 mph /  5.6 km/h 74 % 0 in /  0.0 mm
23:15 69.8 °F /  21.0 °C 55.2 °F /  12.9 °C 29.9 in /  1013.8 hPa West 1 mph /  1.6 km/h 2 mph /  3.2 km/h 60 % 0 in /  0.0 mm
23:18 73 °F /  22.8 °C 64.2 °F /  17.9 °C 29.9 in /  1013.8 hPa ENE 5.8 mph /  9.3 km/h 5.8 mph /  9.3 km/h 74 % 0 in /  0.0 mm
23:23 73 °F /  22.8 °C 64.2 °F /  17.9 °C 29.9 in /  1013.8 hPa North 5.8 mph /  9.3 km/h 5.8 mph /  9.3 km/h 74 % 0 in /  0.0 mm
23:25 69.6 °F /  20.9 °C 55 °F /  12.8 °C 29.9 in /  1013.8 hPa West 2 mph /  3.2 km/h 2 mph /  3.2 km/h 60 % 0 in /  0.0 mm
23:28 73 °F /  22.8 °C 64.2 °F /  17.9 °C 29.9 in /  1013.8 hPa ENE 3.5 mph /  5.6 km/h 3.5 mph /  5.6 km/h 74 % 0 in /  0.0 mm
23:33 72.9 °F /  22.7 °C 64 °F /  17.8 °C 29.9 in /  1013.8 hPa ENE 2.6 mph /  4.2 km/h 2.6 mph /  4.2 km/h 74 % 0 in /  0.0 mm
23:35 69.4 °F /  20.8 °C 54.5 °F /  12.5 °C 29.9 in /  1013.8 hPa West 2 mph /  3.2 km/h 4 mph /  6.4 km/h 59 % 0 in /  0.0 mm
23:38 72.9 °F /  22.7 °C 64 °F /  17.8 °C 29.9 in /  1013.8 hPa ENE 2.3 mph /  3.7 km/h 2.3 mph /  3.7 km/h 74 % 0 in /  0.0 mm
23:43 72.7 °F /  22.6 °C 63.9 °F /  17.7 °C 29.9 in /  1013.8 hPa East 3.1 mph /  5.0 km/h 3.1 mph /  5.0 km/h 74 % 0 in /  0.0 mm
23:45 69.3 °F /  20.7 °C 54.3 °F /  12.4 °C 29.9 in /  1013.8 hPa West 1 mph /  1.6 km/h 4 mph /  6.4 km/h 59 % 0 in /  0.0 mm
23:48 72.7 °F /  22.6 °C 63.9 °F /  17.7 °C 29.9 in /  1013.8 hPa NE 3.5 mph /  5.6 km/h 3.5 mph /  5.6 km/h 74 % 0 in /  0.0 mm
23:53 72.5 °F /  22.5 °C 63.7 °F /  17.6 °C 29.9 in /  1013.8 hPa NNE 4.6 mph /  7.4 km/h 4.6 mph /  7.4 km/h 74 % 0 in /  0.0 mm
23:55 68.9 °F /  20.5 °C 53.4 °F /  11.9 °C 29.9 in /  1013.8 hPa West 2 mph /  3.2 km/h 3 mph /  4.8 km/h 58 % 0 in /  0.0 mm
23:58 72.5 °F /  22.5 °C 63.7 °F /  17.6 °C 29.9 in /  1013.8 hPa East 3.5 mph /  5.6 km/h 3.5 mph /  5.6 km/h 74 % 0 in /  0.0 mm
Meteo Sesrovires
Elogis d' Weather Underground - 3.75 mb

Guio original per  Jim McMurry - jmcmurry@mwt.net Adaptat per a la plantilla per  Wim van der Kuil - Leuven-Template.eu

Trobareu la nostra informacio del temps tambe a:

Weather Underground

AWEKAS